Terminal Aerodrome Forecast
Issued by NWS

Home | Current Version | Previous Version | Text Only | Print | Product List | Glossary On
Versions: 1 2 3 4 5 6 7 8 9 10 11 12 13 14 15 16 17 18 19 20 21 22 23 24 25
000
FTAK31 PANC 171120
TAFAHO
TAF
PAHO 171120Z 1712/1812 04005KT P6SM -RA BKN035 OVC050
     FM172100 14008KT P6SM BKN050
     FM180600 05004KT P6SM SCT050 OVC080=

USA.gov is the U.S. government's official web portal to all federal, state and local government web resources and services.